sensor_id;sensor_type;location;lat;lon;timestamp;temperature;humidity
63202;DHT22;49296;48.188;11.566;2023-04-02T00:01:17;8.48;70.18
63202;DHT22;49296;48.188;11.566;2023-04-02T00:04:12;8.54;69.94
63202;DHT22;49296;48.188;11.566;2023-04-02T00:06:42;8.52;69.73
63202;DHT22;49296;48.188;11.566;2023-04-02T00:09:28;8.57;69.70
63202;DHT22;49296;48.188;11.566;2023-04-02T00:11:56;8.48;69.96
63202;DHT22;49296;48.188;11.566;2023-04-02T00:14:27;8.45;70.19
63202;DHT22;49296;48.188;11.566;2023-04-02T00:16:55;8.48;70.01
63202;DHT22;49296;48.188;11.566;2023-04-02T00:19:27;8.41;70.46
63202;DHT22;49296;48.188;11.566;2023-04-02T00:21:58;8.41;70.51
63202;DHT22;49296;48.188;11.566;2023-04-02T00:24:25;8.33;70.52
63202;DHT22;49296;48.188;11.566;2023-04-02T00:26:53;8.30;70.65
63202;DHT22;49296;48.188;11.566;2023-04-02T00:29:20;8.38;70.59
63202;DHT22;49296;48.188;11.566;2023-04-02T00:31:49;8.41;70.53
63202;DHT22;49296;48.188;11.566;2023-04-02T00:34:20;8.48;70.17
63202;DHT22;49296;48.188;11.566;2023-04-02T00:36:48;8.57;69.92
63202;DHT22;49296;48.188;11.566;2023-04-02T00:39:19;8.61;69.82
63202;DHT22;49296;48.188;11.566;2023-04-02T00:41:48;8.48;69.95
63202;DHT22;49296;48.188;11.566;2023-04-02T00:44:19;8.55;69.81
63202;DHT22;49296;48.188;11.566;2023-04-02T00:46:47;8.42;70.17
63202;DHT22;49296;48.188;11.566;2023-04-02T00:49:20;8.42;70.08
63202;DHT22;49296;48.188;11.566;2023-04-02T00:51:50;8.45;70.02
63202;DHT22;49296;48.188;11.566;2023-04-02T00:54:22;8.44;70.29
63202;DHT22;49296;48.188;11.566;2023-04-02T00:56:52;8.41;70.00
63202;DHT22;49296;48.188;11.566;2023-04-02T00:59:24;8.42;69.93
63202;DHT22;49296;48.188;11.566;2023-04-02T01:01:53;8.47;69.79
63202;DHT22;49296;48.188;11.566;2023-04-02T01:04:29;8.40;69.96
63202;DHT22;49296;48.188;11.566;2023-04-02T01:07:00;8.33;70.14
63202;DHT22;49296;48.188;11.566;2023-04-02T01:12:31;8.40;69.92
63202;DHT22;49296;48.188;11.566;2023-04-02T01:15:06;8.30;70.30
63202;DHT22;49296;48.188;11.566;2023-04-02T01:17:45;8.29;70.35
63202;DHT22;49296;48.188;11.566;2023-04-02T01:20:42;8.31;70.38
63202;DHT22;49296;48.188;11.566;2023-04-02T01:23:16;8.29;70.25
63202;DHT22;49296;48.188;11.566;2023-04-02T01:25:49;8.14;70.75
63202;DHT22;49296;48.188;11.566;2023-04-02T01:28:19;8.16;71.04
63202;DHT22;49296;48.188;11.566;2023-04-02T01:30:51;8.14;70.97
63202;DHT22;49296;48.188;11.566;2023-04-02T01:33:21;8.24;70.65
63202;DHT22;49296;48.188;11.566;2023-04-02T01:35:52;8.27;70.63
63202;DHT22;49296;48.188;11.566;2023-04-02T01:38:23;8.36;70.44
63202;DHT22;49296;48.188;11.566;2023-04-02T01:40:52;8.26;70.50
63202;DHT22;49296;48.188;11.566;2023-04-02T01:43:27;8.20;70.88
63202;DHT22;49296;48.188;11.566;2023-04-02T01:45:58;8.29;70.62
63202;DHT22;49296;48.188;11.566;2023-04-02T01:48:28;8.20;70.80
63202;DHT22;49296;48.188;11.566;2023-04-02T01:50:57;8.19;70.80
63202;DHT22;49296;48.188;11.566;2023-04-02T01:53:27;8.14;71.08
63202;DHT22;49296;48.188;11.566;2023-04-02T01:59:19;8.27;70.62
63202;DHT22;49296;48.188;11.566;2023-04-02T02:01:51;8.36;70.47
63202;DHT22;49296;48.188;11.566;2023-04-02T02:04:22;8.20;70.71
63202;DHT22;49296;48.188;11.566;2023-04-02T02:06:49;8.26;70.89
63202;DHT22;49296;48.188;11.566;2023-04-02T02:09:19;8.26;70.83
63202;DHT22;49296;48.188;11.566;2023-04-02T02:11:49;8.22;71.10
63202;DHT22;49296;48.188;11.566;2023-04-02T02:14:18;8.17;71.17
63202;DHT22;49296;48.188;11.566;2023-04-02T02:16:48;8.29;71.06
63202;DHT22;49296;48.188;11.566;2023-04-02T02:19:23;8.20;71.09
63202;DHT22;49296;48.188;11.566;2023-04-02T02:21:52;8.14;71.46
63202;DHT22;49296;48.188;11.566;2023-04-02T02:24:22;8.13;71.50
63202;DHT22;49296;48.188;11.566;2023-04-02T02:27:04;8.13;71.65
63202;DHT22;49296;48.188;11.566;2023-04-02T02:29:36;8.12;71.75
63202;DHT22;49296;48.188;11.566;2023-04-02T02:32:06;8.13;71.64
63202;DHT22;49296;48.188;11.566;2023-04-02T02:34:37;8.17;71.50
63202;DHT22;49296;48.188;11.566;2023-04-02T02:37:10;8.16;71.42
63202;DHT22;49296;48.188;11.566;2023-04-02T02:39:41;8.19;71.36
63202;DHT22;49296;48.188;11.566;2023-04-02T02:42:12;8.14;71.44
63202;DHT22;49296;48.188;11.566;2023-04-02T02:44:43;8.13;71.52
63202;DHT22;49296;48.188;11.566;2023-04-02T02:47:14;8.16;71.53
63202;DHT22;49296;48.188;11.566;2023-04-02T02:49:43;8.05;71.56
63202;DHT22;49296;48.188;11.566;2023-04-02T02:52:15;8.05;71.73
63202;DHT22;49296;48.188;11.566;2023-04-02T02:54:48;8.05;71.74
63202;DHT22;49296;48.188;11.566;2023-04-02T02:57:19;8.22;71.16
63202;DHT22;49296;48.188;11.566;2023-04-02T02:59:47;8.27;71.21
63202;DHT22;49296;48.188;11.566;2023-04-02T03:02:16;8.19;71.33
63202;DHT22;49296;48.188;11.566;2023-04-02T03:04:46;8.22;71.15
63202;DHT22;49296;48.188;11.566;2023-04-02T03:07:14;8.24;70.80
63202;DHT22;49296;48.188;11.566;2023-04-02T03:09:48;8.17;71.20
63202;DHT22;49296;48.188;11.566;2023-04-02T03:12:34;8.20;71.16
63202;DHT22;49296;48.188;11.566;2023-04-02T03:15:07;8.13;71.22
63202;DHT22;49296;48.188;11.566;2023-04-02T03:17:43;8.09;71.28
63202;DHT22;49296;48.188;11.566;2023-04-02T03:20:14;8.06;71.25
63202;DHT22;49296;48.188;11.566;2023-04-02T03:22:45;8.00;71.38
63202;DHT22;49296;48.188;11.566;2023-04-02T03:25:22;8.00;71.29
63202;DHT22;49296;48.188;11.566;2023-04-02T03:27:55;7.97;71.52
63202;DHT22;49296;48.188;11.566;2023-04-02T03:30:30;8.05;71.32
63202;DHT22;49296;48.188;11.566;2023-04-02T03:33:04;8.02;71.42
63202;DHT22;49296;48.188;11.566;2023-04-02T03:35:35;7.99;71.28
63202;DHT22;49296;48.188;11.566;2023-04-02T03:38:05;7.96;71.31
63202;DHT22;49296;48.188;11.566;2023-04-02T03:40:35;8.03;71.31
63202;DHT22;49296;48.188;11.566;2023-04-02T03:43:09;7.89;71.78
63202;DHT22;49296;48.188;11.566;2023-04-02T03:45:40;7.96;71.55
63202;DHT22;49296;48.188;11.566;2023-04-02T03:48:11;7.92;71.47
63202;DHT22;49296;48.188;11.566;2023-04-02T03:50:43;7.90;71.76
63202;DHT22;49296;48.188;11.566;2023-04-02T03:53:11;7.90;71.77
63202;DHT22;49296;48.188;11.566;2023-04-02T03:55:39;7.86;71.85
63202;DHT22;49296;48.188;11.566;2023-04-02T03:58:13;7.99;71.36
63202;DHT22;49296;48.188;11.566;2023-04-02T04:00:46;8.16;71.07
63202;DHT22;49296;48.188;11.566;2023-04-02T04:03:20;8.16;70.76
63202;DHT22;49296;48.188;11.566;2023-04-02T04:05:50;8.13;70.79
63202;DHT22;49296;48.188;11.566;2023-04-02T04:08:21;8.05;71.02
63202;DHT22;49296;48.188;11.566;2023-04-02T04:10:50;7.95;71.39
63202;DHT22;49296;48.188;11.566;2023-04-02T04:13:21;7.89;71.57
63202;DHT22;49296;48.188;11.566;2023-04-02T04:15:53;7.92;71.58
63202;DHT22;49296;48.188;11.566;2023-04-02T04:18:28;7.96;71.38
63202;DHT22;49296;48.188;11.566;2023-04-02T04:21:00;7.97;71.16
63202;DHT22;49296;48.188;11.566;2023-04-02T04:23:30;8.03;71.22
63202;DHT22;49296;48.188;11.566;2023-04-02T04:25:59;7.85;71.72
63202;DHT22;49296;48.188;11.566;2023-04-02T04:28:33;7.92;71.74
63202;DHT22;49296;48.188;11.566;2023-04-02T04:31:11;7.88;71.72
63202;DHT22;49296;48.188;11.566;2023-04-02T04:33:46;7.86;71.51
63202;DHT22;49296;48.188;11.566;2023-04-02T04:36:20;7.72;71.94
63202;DHT22;49296;48.188;11.566;2023-04-02T04:38:52;7.74;71.97
63202;DHT22;49296;48.188;11.566;2023-04-02T04:41:26;7.81;71.74
63202;DHT22;49296;48.188;11.566;2023-04-02T04:44:00;7.82;71.94
63202;DHT22;49296;48.188;11.566;2023-04-02T04:46:33;7.74;72.09
63202;DHT22;49296;48.188;11.566;2023-04-02T04:49:08;7.78;72.13
63202;DHT22;49296;48.188;11.566;2023-04-02T04:51:38;7.81;71.96
63202;DHT22;49296;48.188;11.566;2023-04-02T04:54:11;7.70;72.16
63202;DHT22;49296;48.188;11.566;2023-04-02T04:56:39;7.77;72.07
63202;DHT22;49296;48.188;11.566;2023-04-02T04:59:13;7.83;71.80
63202;DHT22;49296;48.188;11.566;2023-04-02T05:01:44;7.74;72.24
63202;DHT22;49296;48.188;11.566;2023-04-02T05:04:16;7.68;72.30
63202;DHT22;49296;48.188;11.566;2023-04-02T05:06:49;7.65;72.20
63202;DHT22;49296;48.188;11.566;2023-04-02T05:09:20;7.79;72.00
63202;DHT22;49296;48.188;11.566;2023-04-02T05:11:52;7.96;71.64
63202;DHT22;49296;48.188;11.566;2023-04-02T05:14:24;7.92;71.54
63202;DHT22;49296;48.188;11.566;2023-04-02T05:16:56;7.86;71.70
63202;DHT22;49296;48.188;11.566;2023-04-02T05:19:34;7.77;71.96
63202;DHT22;49296;48.188;11.566;2023-04-02T05:22:12;7.85;71.89
63202;DHT22;49296;48.188;11.566;2023-04-02T05:24:52;7.79;71.99
63202;DHT22;49296;48.188;11.566;2023-04-02T05:27:27;7.72;72.32
63202;DHT22;49296;48.188;11.566;2023-04-02T05:29:59;7.64;72.29
63202;DHT22;49296;48.188;11.566;2023-04-02T05:32:29;7.75;72.20
63202;DHT22;49296;48.188;11.566;2023-04-02T05:34:58;7.75;72.32
63202;DHT22;49296;48.188;11.566;2023-04-02T05:37:28;7.79;72.19
63202;DHT22;49296;48.188;11.566;2023-04-02T05:39:57;7.71;72.02
63202;DHT22;49296;48.188;11.566;2023-04-02T05:42:26;7.79;72.10
63202;DHT22;49296;48.188;11.566;2023-04-02T05:45:00;7.83;72.02
63202;DHT22;49296;48.188;11.566;2023-04-02T05:47:30;7.71;72.27
63202;DHT22;49296;48.188;11.566;2023-04-02T05:50:11;7.64;72.35
63202;DHT22;49296;48.188;11.566;2023-04-02T05:52:45;7.71;72.37
63202;DHT22;49296;48.188;11.566;2023-04-02T05:55:28;7.72;72.13
63202;DHT22;49296;48.188;11.566;2023-04-02T05:58:02;7.68;72.24
63202;DHT22;49296;48.188;11.566;2023-04-02T06:00:45;7.51;72.83
63202;DHT22;49296;48.188;11.566;2023-04-02T06:03:18;7.54;72.93
63202;DHT22;49296;48.188;11.566;2023-04-02T06:05:50;7.51;72.94
63202;DHT22;49296;48.188;11.566;2023-04-02T06:08:21;7.51;73.03
63202;DHT22;49296;48.188;11.566;2023-04-02T06:10:51;7.55;73.00
63202;DHT22;49296;48.188;11.566;2023-04-02T06:13:19;7.65;72.76
63202;DHT22;49296;48.188;11.566;2023-04-02T06:15:47;7.64;72.74
63202;DHT22;49296;48.188;11.566;2023-04-02T06:18:16;7.67;72.63
63202;DHT22;49296;48.188;11.566;2023-04-02T06:20:44;7.54;72.99
63202;DHT22;49296;48.188;11.566;2023-04-02T06:23:15;7.70;72.77
63202;DHT22;49296;48.188;11.566;2023-04-02T06:25:46;7.67;72.45
63202;DHT22;49296;48.188;11.566;2023-04-02T06:28:16;7.60;72.71
63202;DHT22;49296;48.188;11.566;2023-04-02T06:30:45;7.54;72.88
63202;DHT22;49296;48.188;11.566;2023-04-02T06:33:12;7.61;72.84
63202;DHT22;49296;48.188;11.566;2023-04-02T06:35:41;7.57;72.93
63202;DHT22;49296;48.188;11.566;2023-04-02T06:38:16;7.68;72.85
63202;DHT22;49296;48.188;11.566;2023-04-02T06:40:48;7.65;72.81
63202;DHT22;49296;48.188;11.566;2023-04-02T06:43:19;7.82;72.37
63202;DHT22;49296;48.188;11.566;2023-04-02T06:45:50;7.77;72.43
63202;DHT22;49296;48.188;11.566;2023-04-02T06:48:19;7.68;72.62
63202;DHT22;49296;48.188;11.566;2023-04-02T06:50:47;7.88;72.41
63202;DHT22;49296;48.188;11.566;2023-04-02T06:53:20;7.83;72.40
63202;DHT22;49296;48.188;11.566;2023-04-02T06:55:51;7.79;72.53
63202;DHT22;49296;48.188;11.566;2023-04-02T06:58:18;7.90;72.31
63202;DHT22;49296;48.188;11.566;2023-04-02T07:00:47;7.89;72.26
63202;DHT22;49296;48.188;11.566;2023-04-02T07:03:16;7.93;72.38
63202;DHT22;49296;48.188;11.566;2023-04-02T07:05:45;8.05;72.16
63202;DHT22;49296;48.188;11.566;2023-04-02T07:08:11;7.95;72.39
63202;DHT22;49296;48.188;11.566;2023-04-02T07:10:40;8.05;72.26
63202;DHT22;49296;48.188;11.566;2023-04-02T07:13:08;8.09;72.09
63202;DHT22;49296;48.188;11.566;2023-04-02T07:15:37;8.23;72.10
63202;DHT22;49296;48.188;11.566;2023-04-02T07:18:04;8.13;72.23
63202;DHT22;49296;48.188;11.566;2023-04-02T07:20:32;8.20;72.21
63202;DHT22;49296;48.188;11.566;2023-04-02T07:23:01;8.20;72.27
63202;DHT22;49296;48.188;11.566;2023-04-02T07:25:28;8.34;71.80
63202;DHT22;49296;48.188;11.566;2023-04-02T07:27:56;8.33;72.10
63202;DHT22;49296;48.188;11.566;2023-04-02T07:30:23;8.37;72.08
63202;DHT22;49296;48.188;11.566;2023-04-02T07:32:50;8.45;72.04
63202;DHT22;49296;48.188;11.566;2023-04-02T07:35:17;8.64;71.32
63202;DHT22;49296;48.188;11.566;2023-04-02T07:37:44;8.64;71.31
63202;DHT22;49296;48.188;11.566;2023-04-02T07:40:15;8.75;70.96
63202;DHT22;49296;48.188;11.566;2023-04-02T07:42:42;8.80;70.92
63202;DHT22;49296;48.188;11.566;2023-04-02T07:45:11;8.86;71.10
63202;DHT22;49296;48.188;11.566;2023-04-02T07:47:39;8.64;71.36
63202;DHT22;49296;48.188;11.566;2023-04-02T07:50:06;8.79;71.22
63202;DHT22;49296;48.188;11.566;2023-04-02T07:52:34;8.80;70.67
63202;DHT22;49296;48.188;11.566;2023-04-02T07:55:04;8.92;70.57
63202;DHT22;49296;48.188;11.566;2023-04-02T07:57:32;8.89;70.72
63202;DHT22;49296;48.188;11.566;2023-04-02T07:59:58;8.73;70.89
63202;DHT22;49296;48.188;11.566;2023-04-02T08:02:27;8.73;71.47
63202;DHT22;49296;48.188;11.566;2023-04-02T08:04:53;8.76;70.98
63202;DHT22;49296;48.188;11.566;2023-04-02T08:07:20;8.69;71.27
63202;DHT22;49296;48.188;11.566;2023-04-02T08:09:47;8.76;70.98
63202;DHT22;49296;48.188;11.566;2023-04-02T08:12:14;8.76;71.02
63202;DHT22;49296;48.188;11.566;2023-04-02T08:14:41;8.73;71.30
63202;DHT22;49296;48.188;11.566;2023-04-02T08:17:08;8.80;71.23
63202;DHT22;49296;48.188;11.566;2023-04-02T08:19:38;8.93;70.85
63202;DHT22;49296;48.188;11.566;2023-04-02T08:22:06;8.92;70.77
63202;DHT22;49296;48.188;11.566;2023-04-02T08:24:33;8.99;70.85
63202;DHT22;49296;48.188;11.566;2023-04-02T08:26:59;9.03;70.65
63202;DHT22;49296;48.188;11.566;2023-04-02T08:29:27;8.93;70.76
63202;DHT22;49296;48.188;11.566;2023-04-02T08:31:56;8.97;70.87
63202;DHT22;49296;48.188;11.566;2023-04-02T08:34:23;9.02;71.02
63202;DHT22;49296;48.188;11.566;2023-04-02T08:36:56;9.28;70.33
63202;DHT22;49296;48.188;11.566;2023-04-02T08:39:24;9.34;70.26
63202;DHT22;49296;48.188;11.566;2023-04-02T08:41:59;9.31;70.67
63202;DHT22;49296;48.188;11.566;2023-04-02T08:44:36;9.30;70.42
63202;DHT22;49296;48.188;11.566;2023-04-02T08:47:06;9.32;70.19
63202;DHT22;49296;48.188;11.566;2023-04-02T08:49:38;9.13;70.47
63202;DHT22;49296;48.188;11.566;2023-04-02T08:52:19;9.27;70.47
63202;DHT22;49296;48.188;11.566;2023-04-02T08:54:46;9.27;70.48
63202;DHT22;49296;48.188;11.566;2023-04-02T08:57:20;9.41;70.19
63202;DHT22;49296;48.188;11.566;2023-04-02T08:59:53;9.44;70.18
63202;DHT22;49296;48.188;11.566;2023-04-02T09:02:23;9.59;70.01
63202;DHT22;49296;48.188;11.566;2023-04-02T09:04:52;9.71;69.73
63202;DHT22;49296;48.188;11.566;2023-04-02T09:07:21;9.81;69.38
63202;DHT22;49296;48.188;11.566;2023-04-02T09:09:48;9.93;69.25
63202;DHT22;49296;48.188;11.566;2023-04-02T09:12:17;10.07;68.72
63202;DHT22;49296;48.188;11.566;2023-04-02T09:14:52;10.04;67.73
63202;DHT22;49296;48.188;11.566;2023-04-02T09:17:23;9.97;68.19
63202;DHT22;49296;48.188;11.566;2023-04-02T09:19:54;9.85;68.24
63202;DHT22;49296;48.188;11.566;2023-04-02T09:22:23;9.97;68.03
63202;DHT22;49296;48.188;11.566;2023-04-02T09:24:51;9.97;68.17
63202;DHT22;49296;48.188;11.566;2023-04-02T09:27:19;9.96;68.19
63202;DHT22;49296;48.188;11.566;2023-04-02T09:29:48;9.79;68.78
63202;DHT22;49296;48.188;11.566;2023-04-02T09:32:24;9.73;68.87
63202;DHT22;49296;48.188;11.566;2023-04-02T09:35:08;9.86;68.90
63202;DHT22;49296;48.188;11.566;2023-04-02T09:37:38;10.09;68.92
63202;DHT22;49296;48.188;11.566;2023-04-02T09:40:16;10.21;68.16
63202;DHT22;49296;48.188;11.566;2023-04-02T09:42:43;10.16;68.10
63202;DHT22;49296;48.188;11.566;2023-04-02T09:45:17;10.13;68.02
63202;DHT22;49296;48.188;11.566;2023-04-02T09:47:45;10.01;67.78
63202;DHT22;49296;48.188;11.566;2023-04-02T09:50:24;10.04;67.51
63202;DHT22;49296;48.188;11.566;2023-04-02T09:52:53;10.16;67.23
63202;DHT22;49296;48.188;11.566;2023-04-02T09:55:23;10.09;67.76
63202;DHT22;49296;48.188;11.566;2023-04-02T09:58:15;10.22;67.99
63202;DHT22;49296;48.188;11.566;2023-04-02T10:00:49;10.48;66.84
63202;DHT22;49296;48.188;11.566;2023-04-02T10:03:22;10.58;65.87
63202;DHT22;49296;48.188;11.566;2023-04-02T10:06:03;10.62;65.85
63202;DHT22;49296;48.188;11.566;2023-04-02T10:08:32;10.87;65.75
63202;DHT22;49296;48.188;11.566;2023-04-02T10:11:01;10.69;66.14
63202;DHT22;49296;48.188;11.566;2023-04-02T10:13:30;10.63;65.91
63202;DHT22;49296;48.188;11.566;2023-04-02T10:16:02;10.58;66.39
63202;DHT22;49296;48.188;11.566;2023-04-02T10:18:37;10.73;66.02
63202;DHT22;49296;48.188;11.566;2023-04-02T10:21:07;10.75;66.53
63202;DHT22;49296;48.188;11.566;2023-04-02T10:23:37;10.73;65.91
63202;DHT22;49296;48.188;11.566;2023-04-02T10:26:15;10.90;65.33
63202;DHT22;49296;48.188;11.566;2023-04-02T10:28:55;10.99;65.47
63202;DHT22;49296;48.188;11.566;2023-04-02T10:31:31;10.90;65.53
63202;DHT22;49296;48.188;11.566;2023-04-02T10:34:02;10.92;65.53
63202;DHT22;49296;48.188;11.566;2023-04-02T10:36:43;11.03;64.82
63202;DHT22;49296;48.188;11.566;2023-04-02T10:39:19;10.80;65.27
63202;DHT22;49296;48.188;11.566;2023-04-02T10:41:52;10.73;65.71
63202;DHT22;49296;48.188;11.566;2023-04-02T10:47:15;10.84;66.11
63202;DHT22;49296;48.188;11.566;2023-04-02T10:49:49;11.01;66.31
63202;DHT22;49296;48.188;11.566;2023-04-02T10:52:20;10.93;66.37
63202;DHT22;49296;48.188;11.566;2023-04-02T10:54:51;10.97;65.28
63202;DHT22;49296;48.188;11.566;2023-04-02T10:57:28;10.87;65.07
63202;DHT22;49296;48.188;11.566;2023-04-02T11:00:04;10.90;65.48
63202;DHT22;49296;48.188;11.566;2023-04-02T11:02:39;10.89;65.51
63202;DHT22;49296;48.188;11.566;2023-04-02T11:05:15;10.86;66.38
63202;DHT22;49296;48.188;11.566;2023-04-02T11:07:59;10.87;66.53
63202;DHT22;49296;48.188;11.566;2023-04-02T11:10:33;10.83;66.22
63202;DHT22;49296;48.188;11.566;2023-04-02T11:13:06;10.79;66.23
63202;DHT22;49296;48.188;11.566;2023-04-02T11:15:35;10.83;66.42
63202;DHT22;49296;48.188;11.566;2023-04-02T11:18:03;10.69;66.87
63202;DHT22;49296;48.188;11.566;2023-04-02T11:20:58;10.65;67.17
63202;DHT22;49296;48.188;11.566;2023-04-02T11:23:28;10.58;67.80
63202;DHT22;49296;48.188;11.566;2023-04-02T11:29:05;10.66;69.12
63202;DHT22;49296;48.188;11.566;2023-04-02T11:31:34;10.84;68.94
63202;DHT22;49296;48.188;11.566;2023-04-02T11:34:01;11.01;68.66
63202;DHT22;49296;48.188;11.566;2023-04-02T11:37:00;11.21;69.00
63202;DHT22;49296;48.188;11.566;2023-04-02T11:39:47;11.20;67.43
63202;DHT22;49296;48.188;11.566;2023-04-02T11:42:29;11.24;66.36
63202;DHT22;49296;48.188;11.566;2023-04-02T11:45:00;11.38;65.47
63202;DHT22;49296;48.188;11.566;2023-04-02T11:47:28;11.30;65.12
63202;DHT22;49296;48.188;11.566;2023-04-02T11:50:03;11.38;65.34
63202;DHT22;49296;48.188;11.566;2023-04-02T11:52:34;11.59;65.39
63202;DHT22;49296;48.188;11.566;2023-04-02T11:55:32;11.62;64.97
63202;DHT22;49296;48.188;11.566;2023-04-02T11:58:22;11.43;65.73
63202;DHT22;49296;48.188;11.566;2023-04-02T12:01:10;11.83;65.49
63202;DHT22;49296;48.188;11.566;2023-04-02T12:04:05;12.11;64.46
63202;DHT22;49296;48.188;11.566;2023-04-02T12:06:46;12.04;62.79
63202;DHT22;49296;48.188;11.566;2023-04-02T12:09:20;11.95;62.03
63202;DHT22;49296;48.188;11.566;2023-04-02T12:11:48;11.94;61.99
63202;DHT22;49296;48.188;11.566;2023-04-02T12:14:42;12.03;61.84
63202;DHT22;49296;48.188;11.566;2023-04-02T12:17:20;12.04;62.27
63202;DHT22;49296;48.188;11.566;2023-04-02T12:19:52;11.86;62.57
63202;DHT22;49296;48.188;11.566;2023-04-02T12:22:21;11.51;63.06
63202;DHT22;49296;48.188;11.566;2023-04-02T12:24:49;11.28;67.96
63202;DHT22;49296;48.188;11.566;2023-04-02T12:27:18;10.97;70.95
63202;DHT22;49296;48.188;11.566;2023-04-02T12:29:47;10.89;72.11
63202;DHT22;49296;48.188;11.566;2023-04-02T12:32:27;10.73;73.72
63202;DHT22;49296;48.188;11.566;2023-04-02T12:34:56;10.61;73.73
63202;DHT22;49296;48.188;11.566;2023-04-02T12:37:25;10.65;74.69
63202;DHT22;49296;48.188;11.566;2023-04-02T12:39:54;10.40;75.05
63202;DHT22;49296;48.188;11.566;2023-04-02T12:42:26;10.37;75.41
63202;DHT22;49296;48.188;11.566;2023-04-02T12:44:53;10.28;75.86
63202;DHT22;49296;48.188;11.566;2023-04-02T12:47:20;10.14;76.81
63202;DHT22;49296;48.188;11.566;2023-04-02T12:49:48;9.92;77.37
63202;DHT22;49296;48.188;11.566;2023-04-02T12:52:17;9.83;78.36
63202;DHT22;49296;48.188;11.566;2023-04-02T12:54:47;9.79;78.23
63202;DHT22;49296;48.188;11.566;2023-04-02T12:57:47;9.79;77.85
63202;DHT22;49296;48.188;11.566;2023-04-02T13:00:33;9.89;78.25
63202;DHT22;49296;48.188;11.566;2023-04-02T13:03:14;9.83;78.45
63202;DHT22;49296;48.188;11.566;2023-04-02T13:05:44;9.86;78.40
63202;DHT22;49296;48.188;11.566;2023-04-02T13:08:15;9.89;79.27
63202;DHT22;49296;48.188;11.566;2023-04-02T13:10:43;9.92;78.51
63202;DHT22;49296;48.188;11.566;2023-04-02T13:13:14;9.86;77.70
63202;DHT22;49296;48.188;11.566;2023-04-02T13:15:41;9.62;79.01
63202;DHT22;49296;48.188;11.566;2023-04-02T13:18:17;9.75;79.56
63202;DHT22;49296;48.188;11.566;2023-04-02T13:20:55;9.68;79.26
63202;DHT22;49296;48.188;11.566;2023-04-02T13:23:34;9.62;79.81
63202;DHT22;49296;48.188;11.566;2023-04-02T13:26:14;9.85;79.73
63202;DHT22;49296;48.188;11.566;2023-04-02T13:28:41;9.96;79.22
63202;DHT22;49296;48.188;11.566;2023-04-02T13:31:14;9.94;79.66
63202;DHT22;49296;48.188;11.566;2023-04-02T13:33:40;9.76;80.40
63202;DHT22;49296;48.188;11.566;2023-04-02T13:36:11;9.92;79.76
63202;DHT22;49296;48.188;11.566;2023-04-02T13:38:38;9.94;79.72
63202;DHT22;49296;48.188;11.566;2023-04-02T13:41:05;9.99;80.03
63202;DHT22;49296;48.188;11.566;2023-04-02T13:43:36;10.16;78.93
63202;DHT22;49296;48.188;11.566;2023-04-02T13:46:04;10.45;78.51
63202;DHT22;49296;48.188;11.566;2023-04-02T13:48:32;10.51;78.74
63202;DHT22;49296;48.188;11.566;2023-04-02T13:50:58;10.40;77.76
63202;DHT22;49296;48.188;11.566;2023-04-02T13:53:28;10.45;77.64
63202;DHT22;49296;48.188;11.566;2023-04-02T13:55:55;10.37;77.90
63202;DHT22;49296;48.188;11.566;2023-04-02T13:58:22;10.44;78.12
63202;DHT22;49296;48.188;11.566;2023-04-02T14:00:49;10.31;78.53
63202;DHT22;49296;48.188;11.566;2023-04-02T14:03:19;10.22;79.10
63202;DHT22;49296;48.188;11.566;2023-04-02T14:05:52;10.06;79.27
63202;DHT22;49296;48.188;11.566;2023-04-02T14:08:28;9.87;78.54
63202;DHT22;49296;48.188;11.566;2023-04-02T14:11:13;9.90;78.73
63202;DHT22;49296;48.188;11.566;2023-04-02T14:13:56;10.01;78.68
63202;DHT22;49296;48.188;11.566;2023-04-02T14:16:46;9.81;78.20
63202;DHT22;49296;48.188;11.566;2023-04-02T14:19:23;9.81;78.41
63202;DHT22;49296;48.188;11.566;2023-04-02T14:22:03;9.99;78.17
63202;DHT22;49296;48.188;11.566;2023-04-02T14:24:39;9.99;78.31
63202;DHT22;49296;48.188;11.566;2023-04-02T14:27:16;9.78;79.00
63202;DHT22;49296;48.188;11.566;2023-04-02T14:29:52;9.56;77.04
63202;DHT22;49296;48.188;11.566;2023-04-02T14:32:24;9.76;77.15
63202;DHT22;49296;48.188;11.566;2023-04-02T14:34:57;10.00;77.05
63202;DHT22;49296;48.188;11.566;2023-04-02T14:37:32;9.56;77.76
63202;DHT22;49296;48.188;11.566;2023-04-02T14:40:11;9.61;78.21
63202;DHT22;49296;48.188;11.566;2023-04-02T14:42:43;9.54;78.36
63202;DHT22;49296;48.188;11.566;2023-04-02T14:45:21;9.65;78.57
63202;DHT22;49296;48.188;11.566;2023-04-02T14:47:53;9.56;78.46
63202;DHT22;49296;48.188;11.566;2023-04-02T14:50:26;9.65;78.68
63202;DHT22;49296;48.188;11.566;2023-04-02T14:52:58;9.41;79.16
63202;DHT22;49296;48.188;11.566;2023-04-02T14:55:32;9.54;79.21
63202;DHT22;49296;48.188;11.566;2023-04-02T14:58:02;9.69;79.16
63202;DHT22;49296;48.188;11.566;2023-04-02T15:00:34;9.86;78.69
63202;DHT22;49296;48.188;11.566;2023-04-02T15:03:06;10.09;78.72
63202;DHT22;49296;48.188;11.566;2023-04-02T15:05:39;10.01;78.91
63202;DHT22;49296;48.188;11.566;2023-04-02T15:08:14;9.96;78.26
63202;DHT22;49296;48.188;11.566;2023-04-02T15:10:52;9.83;78.71
63202;DHT22;49296;48.188;11.566;2023-04-02T15:13:24;9.85;78.77
63202;DHT22;49296;48.188;11.566;2023-04-02T15:15:54;9.73;78.81
63202;DHT22;49296;48.188;11.566;2023-04-02T15:18:22;9.66;78.80
63202;DHT22;49296;48.188;11.566;2023-04-02T15:20:59;9.52;79.03
63202;DHT22;49296;48.188;11.566;2023-04-02T15:23:37;9.85;78.60
63202;DHT22;49296;48.188;11.566;2023-04-02T15:26:17;9.86;78.85
63202;DHT22;49296;48.188;11.566;2023-04-02T15:28:49;9.76;79.04
63202;DHT22;49296;48.188;11.566;2023-04-02T15:31:18;9.85;78.94
63202;DHT22;49296;48.188;11.566;2023-04-02T15:33:49;9.76;79.11
63202;DHT22;49296;48.188;11.566;2023-04-02T15:36:47;9.65;79.16
63202;DHT22;49296;48.188;11.566;2023-04-02T15:39:44;9.63;79.17
63202;DHT22;49296;48.188;11.566;2023-04-02T15:42:16;9.79;78.72
63202;DHT22;49296;48.188;11.566;2023-04-02T15:44:55;9.63;79.10
63202;DHT22;49296;48.188;11.566;2023-04-02T15:47:32;9.56;79.24
63202;DHT22;49296;48.188;11.566;2023-04-02T15:50:08;9.62;79.11
63202;DHT22;49296;48.188;11.566;2023-04-02T15:52:45;9.44;79.13
63202;DHT22;49296;48.188;11.566;2023-04-02T15:55:28;9.39;79.05
63202;DHT22;49296;48.188;11.566;2023-04-02T15:58:21;9.54;79.11
63202;DHT22;49296;48.188;11.566;2023-04-02T16:00:55;9.69;78.62
63202;DHT22;49296;48.188;11.566;2023-04-02T16:03:43;9.63;78.79
63202;DHT22;49296;48.188;11.566;2023-04-02T16:06:25;9.47;78.74
63202;DHT22;49296;48.188;11.566;2023-04-02T16:09:06;9.45;79.22
63202;DHT22;49296;48.188;11.566;2023-04-02T16:11:37;9.39;79.43
63202;DHT22;49296;48.188;11.566;2023-04-02T16:14:20;9.52;79.53